Time;durP1;ratioP1;P1;durP2;ratioP2;P2;SDS_P1;SDS_P2;PMS_P1;PMS_P2;Temp;Humidity;BMP_temperature;BMP_pressure;BME280_temperature;BME280_humidity;BME280_pressure;Samples;Min_cycle;Max_cycle;Signal;HPM_P1;HPM_P2
2022/11/21 00:01:59;;;;;;;0.80;0.80;;;;;;;6.75;86.97;99890.13;5130042;28;20418;-85
2022/11/21 00:04:29;;;;;;;2.17;1.15;;;;;;;6.77;86.78;99874.44;5150301;28;20028;-86
2022/11/21 00:07:00;;;;;;;0.50;0.50;;;;;;;6.73;86.81;99886.69;5130988;28;20073;-85
2022/11/21 00:09:32;;;;;;;0.40;0.40;;;;;;;6.73;86.71;99878.03;5146039;28;20040;-86
2022/11/21 00:12:03;;;;;;;0.40;0.40;;;;;;;6.74;86.72;99882.31;5142966;28;20355;-85
2022/11/21 00:14:33;;;;;;;0.77;0.77;;;;;;;6.78;85.92;99891.78;5183246;28;20475;-85
2022/11/21 00:17:04;;;;;;;0.52;0.52;;;;;;;6.74;85.64;99877.97;5161405;28;20041;-84
2022/11/21 00:19:34;;;;;;;0.52;0.52;;;;;;;6.73;85.85;99891.91;5150210;28;20087;-85
2022/11/21 00:22:04;;;;;;;0.50;0.50;;;;;;;6.63;86.38;99893.00;5139880;28;20084;-85
2022/11/21 00:24:35;;;;;;;0.80;0.80;;;;;;;6.73;85.86;99891.91;5166716;28;20100;-87
2022/11/21 00:27:05;;;;;;;6.95;3.08;;;;;;;6.66;85.58;99899.91;5159060;28;20103;-85
2022/11/21 00:29:36;;;;;;;0.95;0.95;;;;;;;6.72;85.80;99900.63;5161994;28;20464;-85
2022/11/21 00:32:06;;;;;;;0.30;0.30;;;;;;;6.70;85.55;99901.56;5145082;28;20527;-86
2022/11/21 00:34:37;;;;;;;0.50;0.50;;;;;;;6.68;85.65;99903.34;5165413;28;20097;-86
2022/11/21 00:37:07;;;;;;;0.73;0.73;;;;;;;6.73;85.87;99906.72;5179355;28;20056;-85
2022/11/21 00:39:37;;;;;;;0.75;0.75;;;;;;;6.69;85.74;99910.25;5173125;28;20052;-84
2022/11/21 00:42:08;;;;;;;1.02;0.93;;;;;;;6.69;85.58;99915.47;5148554;28;20038;-84
2022/11/21 00:44:38;;;;;;;0.43;0.43;;;;;;;6.71;85.29;99924.13;5146334;28;20037;-85
2022/11/21 00:47:09;;;;;;;0.68;0.68;;;;;;;6.64;85.67;99926.00;5150982;28;20045;-85
2022/11/21 00:49:39;;;;;;;0.43;0.43;;;;;;;6.67;85.61;99925.94;5163710;28;20108;-85
2022/11/21 00:52:10;;;;;;;0.38;0.38;;;;;;;6.67;85.56;99914.66;5145032;28;20061;-86
2022/11/21 00:54:40;;;;;;;1.33;1.33;;;;;;;6.63;85.20;99919.06;5149816;28;20033;-85
2022/11/21 00:57:10;;;;;;;0.30;0.30;;;;;;;6.69;85.50;99915.47;5163097;28;20050;-87
2022/11/21 00:59:41;;;;;;;8.93;2.53;;;;;;;6.64;85.43;99917.34;5132390;28;20227;-86
2022/11/21 01:02:12;;;;;;;6.65;1.55;;;;;;;6.74;85.20;99919.69;5153612;28;20038;-86
2022/11/21 01:04:43;;;;;;;0.82;0.82;;;;;;;6.73;84.79;99925.78;5154326;28;20057;-85
2022/11/21 01:07:13;;;;;;;23.88;1.98;;;;;;;6.81;84.20;99915.19;5147226;28;20526;-84
2022/11/21 01:09:44;;;;;;;6.82;2.60;;;;;;;6.71;85.00;99908.47;5158258;28;20052;-85
2022/11/21 01:12:14;;;;;;;0.30;0.30;;;;;;;6.59;85.01;99912.25;5144597;28;20050;-86
2022/11/21 01:14:45;;;;;;;0.73;0.73;;;;;;;6.59;84.94;99909.63;5165878;28;20037;-85
2022/11/21 01:17:15;;;;;;;0.43;0.43;;;;;;;6.64;85.40;99919.97;5126884;28;20081;-84
2022/11/21 01:19:46;;;;;;;1.50;1.40;;;;;;;6.63;84.91;99921.69;5154090;28;20054;-85
2022/11/21 01:22:16;;;;;;;0.70;0.70;;;;;;;6.61;85.49;99928.72;5164456;28;20045;-85
2022/11/21 01:24:46;;;;;;;0.70;0.70;;;;;;;6.59;85.31;99918.28;5131080;28;20027;-85
2022/11/21 01:27:17;;;;;;;1.05;1.05;;;;;;;6.57;85.43;99917.47;5167920;28;20118;-86
2022/11/21 01:29:47;;;;;;;1.85;1.75;;;;;;;6.59;86.17;99918.28;5149733;28;20030;-85
2022/11/21 01:32:18;;;;;;;0.30;0.30;;;;;;;6.60;85.97;99927.00;5163824;28;20400;-86
2022/11/21 01:34:48;;;;;;;2.35;1.45;;;;;;;6.59;85.76;99926.13;5165963;28;20514;-85
2022/11/21 01:37:19;;;;;;;5.82;2.33;;;;;;;6.57;86.00;99933.09;5148102;28;20059;-85
2022/11/21 01:39:49;;;;;;;0.30;0.30;;;;;;;6.60;85.65;99927.84;5134404;28;20038;-84
2022/11/21 01:42:19;;;;;;;1.50;1.13;;;;;;;6.56;86.00;99928.81;5162787;28;20046;-85
2022/11/21 01:44:52;;;;;;;2.80;0.50;;;;;;;6.59;85.36;99926.13;5135536;28;20042;-86
2022/11/21 01:47:22;;;;;;;0.30;0.30;;;;;;;6.57;85.40;99922.69;5167762;28;20045;-86
2022/11/21 01:49:53;;;;;;;1.80;1.70;;;;;;;6.54;85.56;99932.31;5133819;28;20032;-86
2022/11/21 01:52:29;;;;;;;0.50;0.50;;;;;;;6.54;86.40;99930.59;5161906;28;20074;-86
2022/11/21 01:55:06;;;;;;;1.08;0.90;;;;;;;6.53;85.71;99934.09;5150550;28;20026;-86
2022/11/21 01:57:44;;;;;;;1.65;1.13;;;;;;;6.54;85.43;99928.00;5133140;28;20049;-85
2022/11/21 02:00:20;;;;;;;0.55;0.55;;;;;;;6.49;85.08;99927.22;5162778;28;20038;-85
2022/11/21 02:02:55;;;;;;;0.40;0.40;;;;;;;6.54;84.56;99925.38;5147348;28;20142;-85
2022/11/21 02:05:30;;;;;;;1.40;1.30;;;;;;;6.46;85.51;99938.56;5149341;28;20026;-85
2022/11/21 02:08:13;;;;;;;0.60;0.60;;;;;;;6.47;85.85;99936.84;5143862;28;20498;-85
2022/11/21 02:10:55;;;;;;;17.05;2.92;;;;;;;6.43;85.38;99930.84;5163540;28;20030;-84
2022/11/21 02:13:25;;;;;;;1.48;1.38;;;;;;;6.43;86.07;99935.19;5166223;28;20042;-85
2022/11/21 02:15:56;;;;;;;0.55;0.55;;;;;;;6.46;85.34;99930.75;5163460;28;20108;-85
2022/11/21 02:18:27;;;;;;;0.60;0.60;;;;;;;6.51;85.21;99933.25;5131460;28;20488;-86
2022/11/21 02:21:12;;;;;;;0.82;0.82;;;;;;;6.50;84.30;99931.53;5141680;28;20066;-86
2022/11/21 02:23:57;;;;;;;0.88;0.88;;;;;;;6.57;84.38;99934.88;5180703;28;20053;-86
2022/11/21 02:26:29;;;;;;;0.65;0.65;;;;;;;6.46;84.64;99937.72;5165651;28;20741;-86
2022/11/21 02:28:59;;;;;;;3.50;1.25;;;;;;;6.50;83.92;99936.75;5167690;28;20034;-84
2022/11/21 02:31:30;;;;;;;0.30;0.30;;;;;;;6.55;83.98;99934.03;5168245;28;20053;-84
2022/11/21 02:34:00;;;;;;;1.17;1.15;;;;;;;6.54;84.00;99935.81;5147899;28;20026;-85
2022/11/21 02:36:44;;;;;;;0.93;0.93;;;;;;;6.59;83.32;99939.16;5150689;28;20042;-86
2022/11/21 02:39:22;;;;;;;3.42;1.85;;;;;;;6.52;83.68;99934.97;5163064;28;20042;-86
2022/11/21 02:42:15;;;;;;;0.30;0.30;;;;;;;6.63;83.51;99926.91;5131205;28;20042;-86
2022/11/21 02:45:15;;;;;;;0.50;0.50;;;;;;;6.60;83.54;99933.03;5148930;28;20030;-85
2022/11/21 02:47:49;;;;;;;0.52;0.52;;;;;;;6.61;83.13;99923.50;5129016;28;20046;-85
2022/11/21 02:50:27;;;;;;;0.40;0.40;;;;;;;6.61;82.98;99932.16;5177766;28;20066;-84
2022/11/21 02:52:57;;;;;;;0.30;0.30;;;;;;;6.82;83.03;99931.69;5182753;28;20038;-85
2022/11/21 02:55:28;;;;;;;1.45;0.95;;;;;;;6.72;82.97;99942.31;5164044;28;20037;-86
2022/11/21 02:57:58;;;;;;;1.65;1.50;;;;;;;6.70;82.71;99943.25;5131411;28;20046;-84
2022/11/21 03:00:29;;;;;;;0.77;0.77;;;;;;;6.71;83.08;99947.59;5137371;28;20038;-85
2022/11/21 03:03:00;;;;;;;0.50;0.50;;;;;;;6.71;82.43;99950.19;5168418;28;20057;-86
2022/11/21 03:05:30;;;;;;;5.05;1.05;;;;;;;6.66;83.05;99947.69;5180960;28;22268;-86
2022/11/21 03:08:02;;;;;;;0.43;0.43;;;;;;;6.68;82.72;99952.88;5167108;28;20097;-83
2022/11/21 03:10:33;;;;;;;0.73;0.73;;;;;;;6.56;83.39;99949.66;5139924;28;20385;-84
2022/11/21 03:13:03;;;;;;;0.93;0.90;;;;;;;6.61;83.26;99946.97;5164446;28;20045;-85
2022/11/21 03:15:34;;;;;;;0.30;0.30;;;;;;;6.56;83.15;99947.06;5180246;28;20023;-85
2022/11/21 03:18:04;;;;;;;0.30;0.30;;;;;;;6.53;82.91;99948.88;5164096;28;20124;-86
2022/11/21 03:20:35;;;;;;;4.75;0.85;;;;;;;6.55;82.88;99941.84;5162841;28;20030;-85
2022/11/21 03:23:05;;;;;;;0.30;0.30;;;;;;;6.52;83.08;99942.78;5169709;28;20050;-85
2022/11/21 03:25:36;;;;;;;0.30;0.30;;;;;;;6.48;82.69;99935.94;5150383;28;20038;-84
2022/11/21 03:28:06;;;;;;;0.73;0.73;;;;;;;6.46;83.49;99938.56;5146088;28;20046;-86
2022/11/21 03:30:36;;;;;;;0.82;0.82;;;;;;;6.41;83.19;99936.97;5144756;28;20050;-85
2022/11/21 03:33:07;;;;;;;0.40;0.40;;;;;;;6.41;83.47;99942.16;5146817;28;20655;-85
2022/11/21 03:35:37;;;;;;;0.30;0.30;;;;;;;6.49;83.28;99940.25;5164627;28;20037;-86
2022/11/21 03:38:08;;;;;;;0.35;0.35;;;;;;;6.46;83.25;99942.94;5148349;28;20147;-84
2022/11/21 03:40:38;;;;;;;0.60;0.60;;;;;;;6.41;83.22;99947.38;5164370;28;20045;-85
2022/11/21 03:43:09;;;;;;;0.95;0.95;;;;;;;6.58;83.15;99945.25;5147704;28;20033;-84
2022/11/21 03:45:39;;;;;;;0.30;0.30;;;;;;;6.44;83.68;99936.91;5163931;28;20061;-86
2022/11/21 03:48:09;;;;;;;4.85;1.65;;;;;;;6.61;82.72;99939.97;5162991;28;20046;-84
2022/11/21 03:50:43;;;;;;;5.47;1.38;;;;;;;6.57;82.65;99938.31;5162414;28;20051;-85
2022/11/21 03:53:14;;;;;;;0.50;0.50;;;;;;;6.55;82.79;99934.03;5181135;28;20055;-86
2022/11/21 03:55:44;;;;;;;0.30;0.30;;;;;;;6.63;82.90;99947.75;5147418;28;20403;-85
2022/11/21 03:58:15;;;;;;;0.30;0.30;;;;;;;6.58;82.50;99949.63;5148251;28;20038;-85
2022/11/21 04:00:46;;;;;;;0.30;0.30;;;;;;;6.69;82.44;99950.25;5160310;28;20038;-85
2022/11/21 04:03:17;;;;;;;0.77;0.77;;;;;;;6.60;82.54;99953.91;5147051;28;20452;-87
2022/11/21 04:05:47;;;;;;;0.35;0.35;;;;;;;6.63;82.20;99957.34;5178385;28;20034;-85
2022/11/21 04:08:18;;;;;;;0.35;0.35;;;;;;;6.61;82.75;99944.34;5173449;28;20305;-85
2022/11/21 04:10:50;;;;;;;0.30;0.30;;;;;;;6.50;82.49;99941.97;5132736;28;20073;-85
2022/11/21 04:13:21;;;;;;;1.55;0.73;;;;;;;6.54;82.27;99937.53;5148742;28;20026;-86
2022/11/21 04:15:52;;;;;;;1.65;0.95;;;;;;;6.56;82.95;99940.97;5139097;28;20053;-86
2022/11/21 04:18:23;;;;;;;0.50;0.50;;;;;;;6.61;82.25;99937.38;5176334;28;20538;-85
2022/11/21 04:20:57;;;;;;;0.77;0.77;;;;;;;6.69;82.20;99942.41;5159623;28;20703;-86
2022/11/21 04:23:28;;;;;;;0.52;0.50;;;;;;;6.53;82.57;99941.91;5162326;28;20029;-86
2022/11/21 04:25:58;;;;;;;0.52;0.52;;;;;;;6.51;82.76;99933.25;5162630;28;20516;-84
2022/11/21 04:28:30;;;;;;;7.32;1.95;;;;;;;6.50;82.71;99941.97;5160691;28;20124;-87
2022/11/21 04:31:02;;;;;;;0.57;0.57;;;;;;;6.55;82.68;99940.13;5175902;28;20498;-86
2022/11/21 04:33:33;;;;;;;0.50;0.50;;;;;;;6.64;82.42;99953.84;5161746;28;20033;-86
2022/11/21 04:36:04;;;;;;;0.77;0.77;;;;;;;6.63;82.42;99950.34;5163692;28;20049;-86
2022/11/21 04:38:35;;;;;;;0.73;0.73;;;;;;;6.72;81.74;99944.94;5161301;28;20165;-85
2022/11/21 04:41:05;;;;;;;0.95;0.90;;;;;;;6.71;82.83;99953.66;5180106;28;20132;-86
2022/11/21 04:43:36;;;;;;;0.40;0.40;;;;;;;6.58;82.29;99947.84;5163695;28;20149;-85
2022/11/21 04:46:06;;;;;;;0.40;0.40;;;;;;;6.55;82.64;99947.06;5180940;28;20064;-84
2022/11/21 04:48:36;;;;;;;0.65;0.65;;;;;;;6.59;83.00;99946.97;5141609;28;20034;-86
2022/11/21 04:51:07;;;;;;;2.05;0.93;;;;;;;6.65;82.28;99947.75;5163467;28;20041;-85
2022/11/21 04:53:37;;;;;;;2.60;0.88;;;;;;;6.67;82.26;99949.41;5151287;28;20034;-86
2022/11/21 04:56:08;;;;;;;0.25;0.25;;;;;;;6.66;82.37;99950.31;5162162;28;20129;-84
2022/11/21 04:58:38;;;;;;;0.30;0.30;;;;;;;6.58;82.74;99944.41;5174178;28;20105;-85
2022/11/21 05:01:09;;;;;;;0.60;0.60;;;;;;;6.63;83.11;99937.31;5164540;28;20030;-86
2022/11/21 05:03:39;;;;;;;0.40;0.40;;;;;;;6.68;82.77;99937.22;5156394;28;20064;-85
2022/11/21 05:06:10;;;;;;;0.45;0.45;;;;;;;6.62;83.30;99930.41;5154838;28;20525;-83
2022/11/21 05:08:40;;;;;;;0.82;0.82;;;;;;;6.49;84.22;99924.59;5129847;28;20037;-85
2022/11/21 05:14:00;;;;;;;0.45;0.45;;;;;;;6.50;83.83;99913.28;5174753;28;20026;-88
2022/11/21 05:16:34;;;;;;;0.88;0.88;;;;;;;6.46;84.01;99920.34;5125886;28;20060;-84
2022/11/21 05:19:04;;;;;;;1.55;1.45;;;;;;;6.55;83.42;99919.28;5161238;28;20100;-85
2022/11/21 05:21:34;;;;;;;1.33;1.25;;;;;;;6.60;83.64;99913.97;5156497;28;20038;-84
2022/11/21 05:24:05;;;;;;;0.60;0.60;;;;;;;6.60;83.50;99913.97;5142953;28;20065;-85
2022/11/21 05:26:36;;;;;;;0.50;0.50;;;;;;;6.51;83.88;99917.63;5143338;28;20058;-84
2022/11/21 05:29:07;;;;;;;0.73;0.73;;;;;;;6.58;83.77;99920.94;5143588;28;20034;-85
2022/11/21 05:31:38;;;;;;;4.03;1.40;;;;;;;6.58;83.86;99928.78;5154122;28;20432;-84
2022/11/21 05:34:08;;;;;;;3.50;1.75;;;;;;;6.69;83.54;99932.00;5157966;28;20034;-86
2022/11/21 05:36:38;;;;;;;0.52;0.52;;;;;;;6.63;83.78;99921.69;5124242;28;20057;-85
2022/11/21 05:39:09;;;;;;;0.40;0.40;;;;;;;6.63;83.65;99910.41;5158307;28;20033;-85
2022/11/21 05:41:39;;;;;;;1.60;1.50;;;;;;;6.58;84.14;99913.97;5160590;28;20683;-85
2022/11/21 05:44:10;;;;;;;4.57;1.02;;;;;;;6.59;84.57;99910.47;5138267;28;20656;-85
2022/11/21 05:46:40;;;;;;;1.58;1.48;;;;;;;6.65;83.49;99903.44;5159869;28;20831;-84
2022/11/21 05:49:11;;;;;;;1.10;1.10;;;;;;;6.68;83.62;99909.41;5163485;28;20037;-84
2022/11/21 05:51:42;;;;;;;0.60;0.60;;;;;;;6.66;83.67;99910.31;5168748;28;20054;-86
2022/11/21 05:54:13;;;;;;;0.77;0.77;;;;;;;6.64;83.42;99909.53;5162925;28;20025;-84
2022/11/21 05:56:44;;;;;;;0.63;0.63;;;;;;;6.67;83.98;99912.91;5143239;28;20046;-85
2022/11/21 05:59:14;;;;;;;1.33;1.27;;;;;;;6.68;83.59;99917.25;5126917;28;20025;-85
2022/11/21 06:04:34;;;;;;;0.60;0.60;;;;;;;6.62;84.51;99914.75;5136535;28;20122;-85
2022/11/21 06:07:04;;;;;;;1.02;1.02;;;;;;;6.57;84.88;99914.84;5144267;28;20469;-85
2022/11/21 06:09:35;;;;;;;0.65;0.65;;;;;;;6.55;84.80;99911.47;5161555;28;20118;-84
2022/11/21 06:12:05;;;;;;;1.13;1.05;;;;;;;6.52;85.29;99913.28;5162576;28;20164;-84
2022/11/21 06:14:36;;;;;;;0.73;0.70;;;;;;;6.52;84.74;99914.13;5165439;28;20053;-85
2022/11/21 06:17:06;;;;;;;0.30;0.30;;;;;;;6.54;85.33;99901.06;5148762;28;20050;-84
2022/11/21 06:19:37;;;;;;;0.75;0.75;;;;;;;6.52;84.68;99898.50;5178509;28;20033;-85
2022/11/21 06:22:07;;;;;;;0.43;0.43;;;;;;;6.48;84.58;99902.06;5141653;28;20084;-82
2022/11/21 06:24:37;;;;;;;2.50;1.10;;;;;;;6.45;84.70;99894.31;5145804;28;20406;-82
2022/11/21 06:27:08;;;;;;;0.55;0.55;;;;;;;6.44;84.36;99901.28;5164156;28;20069;-82
2022/11/21 06:29:38;;;;;;;0.30;0.30;;;;;;;6.36;84.96;99897.13;5163431;28;20507;-85
2022/11/21 06:32:09;;;;;;;1.35;1.25;;;;;;;6.32;85.38;99898.09;5175821;28;20129;-85
2022/11/21 06:34:40;;;;;;;0.85;0.85;;;;;;;6.46;84.41;99902.09;5130737;28;20061;-85
2022/11/21 06:37:10;;;;;;;0.30;0.30;;;;;;;6.44;84.70;99896.06;5144073;28;21499;-84
2022/11/21 06:39:41;;;;;;;0.40;0.40;;;;;;;6.31;85.14;99905.03;5131520;28;20120;-83
2022/11/21 06:42:11;;;;;;;0.82;0.82;;;;;;;6.34;85.12;99901.50;5161039;28;20046;-84
2022/11/21 06:44:42;;;;;;;0.80;0.80;;;;;;;6.29;85.56;99897.28;5140412;28;20042;-83
2022/11/21 06:47:12;;;;;;;0.40;0.40;;;;;;;6.31;85.17;99894.63;5142408;28;20399;-84
2022/11/21 06:49:43;;;;;;;0.57;0.57;;;;;;;6.26;85.59;99902.53;5149540;28;20334;-83
2022/11/21 06:52:13;;;;;;;0.30;0.30;;;;;;;6.29;85.59;99902.50;5127766;28;20415;-83
2022/11/21 06:54:43;;;;;;;0.38;0.38;;;;;;;6.26;85.82;99902.53;5181311;28;20038;-83
2022/11/21 06:57:14;;;;;;;0.63;0.63;;;;;;;6.26;85.67;99897.34;5159482;28;20096;-83
2022/11/21 06:59:44;;;;;;;0.43;0.43;;;;;;;6.27;85.86;99893.84;5129527;28;20083;-84
2022/11/21 07:02:15;;;;;;;0.47;0.47;;;;;;;6.30;85.84;99898.13;5126237;28;20065;-83
2022/11/21 07:04:45;;;;;;;1.45;1.38;;;;;;;6.31;85.34;99894.63;5160444;28;20118;-83
2022/11/21 07:07:16;;;;;;;0.40;0.40;;;;;;;6.37;85.03;99899.69;5175942;28;20058;-84
2022/11/21 07:09:46;;;;;;;0.60;0.60;;;;;;;6.32;85.46;99885.06;5130048;28;20631;-84
2022/11/21 07:15:07;;;;;;;1.27;1.02;;;;;;;6.25;85.77;99893.00;5180541;28;20091;-84
2022/11/21 07:17:37;;;;;;;1.20;1.20;;;;;;;6.20;85.54;99891.44;5158787;28;20038;-83
2022/11/21 07:20:08;;;;;;;0.93;0.73;;;;;;;6.17;85.63;99888.88;5159548;28;20029;-83
2022/11/21 07:22:39;;;;;;;1.85;0.88;;;;;;;6.21;85.88;99883.56;5144218;28;20076;-84
2022/11/21 07:25:09;;;;;;;3.22;1.10;;;;;;;6.23;85.47;99887.00;5129147;28;20022;-83
2022/11/21 07:27:40;;;;;;;0.30;0.30;;;;;;;6.24;85.44;99883.47;5157627;28;20045;-83
2022/11/21 07:30:11;;;;;;;0.55;0.55;;;;;;;6.24;85.64;99887.84;5162433;28;20065;-83
2022/11/21 07:32:42;;;;;;;0.47;0.47;;;;;;;6.19;85.38;99890.56;5157911;28;20354;-83
2022/11/21 07:35:12;;;;;;;0.30;0.30;;;;;;;6.22;85.89;99890.50;5163756;28;20519;-84
2022/11/21 07:37:43;;;;;;;0.40;0.40;;;;;;;6.25;85.09;99882.59;5145498;28;20042;-84
2022/11/21 07:40:13;;;;;;;0.60;0.60;;;;;;;6.27;85.17;99882.59;5142179;28;20059;-84
2022/11/21 07:42:44;;;;;;;0.30;0.30;;;;;;;6.17;85.56;99881.91;5163294;28;20091;-84
2022/11/21 07:45:15;;;;;;;3.50;1.00;;;;;;;6.18;85.86;99885.38;5141986;28;20037;-84
2022/11/21 07:47:45;;;;;;;0.70;0.70;;;;;;;6.19;85.80;99885.34;5159373;28;20046;-83
2022/11/21 07:50:16;;;;;;;0.50;0.50;;;;;;;6.27;85.44;99880.81;5163558;28;20038;-84
2022/11/21 07:52:46;;;;;;;1.63;1.52;;;;;;;6.21;85.59;99880.97;5144678;28;20037;-84
2022/11/21 07:55:17;;;;;;;0.65;0.65;;;;;;;6.27;85.30;99877.38;5145400;28;20052;-85
2022/11/21 07:57:55;;;;;;;0.88;0.88;;;;;;;6.32;84.95;99874.66;5128032;28;20140;-85
2022/11/21 08:00:27;;;;;;;3.53;2.10;;;;;;;6.26;85.13;99865.22;5159062;28;20075;-84
2022/11/21 08:02:58;;;;;;;2.67;1.77;;;;;;;6.33;84.82;99861.59;5127478;28;20270;-84
2022/11/21 08:05:28;;;;;;;0.50;0.50;;;;;;;6.32;85.16;99879.88;5160090;28;20030;-84
2022/11/21 08:07:59;;;;;;;0.40;0.40;;;;;;;6.29;85.42;99883.38;5147223;28;20440;-83
2022/11/21 08:10:29;;;;;;;0.57;0.57;;;;;;;6.29;85.00;99876.44;5162404;28;20069;-84
2022/11/21 08:12:59;;;;;;;0.60;0.60;;;;;;;6.35;85.28;99871.97;5175118;28;20086;-84
2022/11/21 08:15:30;;;;;;;0.80;0.80;;;;;;;6.25;85.22;99874.78;5197902;28;20355;-84
2022/11/21 08:18:16;;;;;;;0.55;0.55;;;;;;;6.28;85.44;99872.13;5170573;28;20042;-84
2022/11/21 08:20:47;;;;;;;0.60;0.60;;;;;;;6.23;85.52;99871.38;5164048;28;20046;-84
2022/11/21 08:23:18;;;;;;;0.52;0.52;;;;;;;6.34;85.17;99878.94;5150985;28;20069;-83
2022/11/21 08:25:50;;;;;;;0.30;0.30;;;;;;;6.28;85.05;99874.72;5159039;28;20110;-84
2022/11/21 08:28:21;;;;;;;0.52;0.52;;;;;;;6.32;85.36;99874.66;5163338;28;20162;-84
2022/11/21 08:30:51;;;;;;;0.52;0.52;;;;;;;6.27;84.79;99866.94;5130335;28;20389;-84
2022/11/21 08:33:22;;;;;;;1.25;0.73;;;;;;;6.28;85.13;99866.91;5144099;28;20223;-84
2022/11/21 08:35:52;;;;;;;0.60;0.60;;;;;;;6.27;85.09;99875.59;5163002;28;20048;-84
2022/11/21 08:38:23;;;;;;;0.73;0.70;;;;;;;6.33;84.85;99865.91;5147793;28;20037;-84
2022/11/21 08:42:01;;;;;;;2.00;1.85;;;;;;;6.31;85.25;99873.78;5145411;28;20057;-83
2022/11/21 08:43:43;;;;;;;0.90;0.75;;;;;;;6.26;85.39;99879.09;5148844;28;20040;-83
2022/11/21 08:46:14;;;;;;;0.98;0.98;;;;;;;6.29;85.20;99876.44;5163977;28;20046;-84
2022/11/21 08:48:44;;;;;;;0.50;0.50;;;;;;;6.33;85.09;99869.41;5163181;28;20061;-84
2022/11/21 08:51:15;;;;;;;0.63;0.63;;;;;;;6.35;85.44;99861.53;5130261;28;20045;-84
2022/11/21 08:53:45;;;;;;;4.10;1.75;;;;;;;6.37;85.45;99862.38;5147468;28;20296;-84
2022/11/21 08:56:16;;;;;;;0.60;0.60;;;;;;;6.41;85.55;99859.66;5143854;28;20415;-84
2022/11/21 08:58:46;;;;;;;0.88;0.88;;;;;;;6.41;85.72;99849.22;5180604;28;20042;-84
2022/11/21 09:01:17;;;;;;;0.40;0.40;;;;;;;6.40;85.11;99841.47;5143683;28;20038;-84
2022/11/21 09:03:47;;;;;;;1.23;1.23;;;;;;;6.49;85.12;99825.56;5128510;28;20524;-84
2022/11/21 09:06:18;;;;;;;1.02;1.00;;;;;;;6.47;84.90;99830.00;5146977;28;20073;-84
2022/11/21 09:08:48;;;;;;;3.80;3.50;;;;;;;6.48;84.67;99823.03;5160997;28;20037;-84
2022/11/21 09:11:18;;;;;;;0.60;0.60;;;;;;;6.59;85.01;99816.66;5177216;28;20054;-84
2022/11/21 09:19:28;;;;;;;0.30;0.30;;;;;;;6.57;84.39;99822.78;5184258;28;20259;-84
2022/11/21 09:21:58;;;;;;;0.30;0.30;;;;;;;6.62;84.80;99820.91;5183787;28;20472;-84
2022/11/21 09:24:29;;;;;;;1.60;1.50;;;;;;;6.65;84.22;99820.00;5169704;28;20073;-84
2022/11/21 09:26:59;;;;;;;0.43;0.43;;;;;;;6.70;84.38;99818.13;5191560;28;20041;-84
2022/11/21 09:29:30;;;;;;;1.13;1.02;;;;;;;6.73;84.32;99812.84;5142412;28;20501;-84
2022/11/21 09:32:00;;;;;;;0.68;0.68;;;;;;;6.73;84.32;99818.06;5162361;28;20042;-83
2022/11/21 09:34:31;;;;;;;0.85;0.80;;;;;;;6.74;84.59;99810.19;5181275;28;20065;-83
2022/11/21 09:37:01;;;;;;;1.67;1.58;;;;;;;6.87;84.40;99812.47;5178214;28;20174;-83
2022/11/21 09:39:33;;;;;;;0.50;0.50;;;;;;;6.79;83.93;99810.06;5151006;28;20038;-83
2022/11/21 09:42:54;;;;;;;1.17;1.17;;;;;;;6.86;84.29;99813.38;5168464;28;20054;-83
2022/11/21 09:45:33;;;;;;;1.02;0.93;;;;;;;6.86;84.26;99814.22;5147198;28;20045;-83
2022/11/21 09:48:11;;;;;;;0.70;0.70;;;;;;;6.91;84.93;99809.72;5163806;28;20038;-83
2022/11/21 09:50:53;;;;;;;0.30;0.30;;;;;;;6.95;85.09;99817.50;5145564;28;20575;-83
2022/11/21 09:53:33;;;;;;;0.32;0.32;;;;;;;6.96;84.70;99808.78;5166706;28;20050;-83
2022/11/21 09:56:11;;;;;;;0.70;0.70;;;;;;;6.97;84.46;99805.28;5165613;28;21640;-83
2022/11/21 09:59:26;;;;;;;0.82;0.65;;;;;;;7.02;83.55;99806.00;5160307;28;20077;-83
2022/11/21 10:01:56;;;;;;;0.82;0.82;;;;;;;7.03;82.82;99799.88;5137274;28;20129;-83
2022/11/21 10:04:28;;;;;;;0.40;0.40;;;;;;;7.08;82.92;99795.38;5167766;28;20723;-83
2022/11/21 10:07:20;;;;;;;0.47;0.47;;;;;;;7.16;82.47;99796.03;5163597;28;20072;-83
2022/11/21 10:10:03;;;;;;;0.50;0.50;;;;;;;7.15;82.45;99788.25;5164949;28;20042;-83
2022/11/21 10:13:11;;;;;;;0.40;0.40;;;;;;;7.13;81.92;99783.09;5126700;28;20446;-83
2022/11/21 10:15:48;;;;;;;0.35;0.35;;;;;;;7.29;82.05;99780.03;5165305;28;20041;-83
2022/11/21 10:18:34;;;;;;;0.30;0.30;;;;;;;7.20;81.94;99770.69;5181243;28;20026;-82
2022/11/21 10:21:22;;;;;;;0.60;0.60;;;;;;;7.19;82.60;99771.63;5163601;28;20046;-83
2022/11/21 10:24:27;;;;;;;0.40;0.40;;;;;;;7.19;82.52;99769.88;5140785;28;20447;-83
2022/11/21 10:27:06;;;;;;;;;;;;;;;7.25;82.61;99774.06;5146441;28;20428;-84
2022/11/21 10:29:47;;;;;;;0.22;0.22;;;;;;;7.43;82.40;99762.22;5183015;28;19917;-83
2022/11/21 10:32:35;;;;;;;3.42;1.58;;;;;;;7.32;81.91;99749.50;5161937;28;20314;-83
2022/11/21 10:35:15;;;;;;;0.30;0.30;;;;;;;7.31;81.64;99752.16;5158554;28;20030;-84
2022/11/21 10:37:52;;;;;;;1.33;1.15;;;;;;;7.40;81.09;99746.63;5145613;28;20113;-83
2022/11/21 10:40:38;;;;;;;0.75;0.75;;;;;;;7.38;81.83;99728.44;5170605;28;20116;-83
2022/11/21 10:46:04;;;;;;;0.50;0.50;;;;;;;7.48;81.92;99729.00;5178220;28;20078;-84
2022/11/21 10:48:34;;;;;;;0.30;0.30;;;;;;;7.48;81.64;99728.16;5149082;28;20579;-83
2022/11/21 10:51:27;;;;;;;0.60;0.60;;;;;;;7.46;81.82;99723.00;5164622;28;20103;-84
2022/11/21 10:57:16;;;;;;;0.35;0.35;;;;;;;7.54;82.45;99718.38;5164219;28;20050;-83
2022/11/21 11:00:26;;;;;;;0.45;0.45;;;;;;;7.64;81.86;99712.88;5141009;28;20049;-84
2022/11/21 11:03:15;;;;;;;0.40;0.40;;;;;;;7.67;80.68;99712.78;5164940;28;20100;-84
2022/11/21 11:05:55;;;;;;;0.30;0.30;;;;;;;7.72;79.38;99697.84;5163847;28;20536;-84
2022/11/21 11:08:27;;;;;;;0.30;0.30;;;;;;;7.71;79.17;99688.28;5166605;28;20365;-83
2022/11/21 11:11:14;;;;;;;0.40;0.40;;;;;;;7.84;78.43;99684.38;5145352;28;20041;-84
2022/11/21 11:13:56;;;;;;;0.77;0.68;;;;;;;7.92;79.66;99675.44;5163163;28;20545;-84
2022/11/21 11:16:30;;;;;;;0.52;0.52;;;;;;;7.90;78.94;99670.25;5164379;28;20066;-84
2022/11/21 11:19:00;;;;;;;0.52;0.52;;;;;;;7.92;78.95;99680.66;5136200;28;20034;-83
2022/11/21 11:21:40;;;;;;;0.95;0.95;;;;;;;8.00;78.41;99668.19;5141406;28;20049;-84
2022/11/21 11:24:10;;;;;;;1.40;1.30;;;;;;;8.04;79.50;99661.97;5178756;28;20421;-84
2022/11/21 11:26:46;;;;;;;0.50;0.50;;;;;;;8.08;78.13;99655.72;5129324;28;20054;-84
2022/11/21 11:29:23;;;;;;;0.38;0.38;;;;;;;8.10;78.06;99653.09;5148234;28;20037;-84
2022/11/21 11:32:20;;;;;;;0.30;0.30;;;;;;;8.19;75.62;99653.63;5128919;28;20046;-84
2022/11/21 11:35:05;;;;;;;0.20;0.20;;;;;;;8.25;74.62;99642.09;5128106;28;20041;-85
2022/11/21 11:37:39;;;;;;;1.17;1.17;;;;;;;8.27;75.50;99645.50;5140489;28;20046;-84
2022/11/21 11:40:22;;;;;;;2.92;1.98;;;;;;;8.32;75.13;99645.34;5150405;28;20049;-85
2022/11/21 11:50:33;;;;;;;0.30;0.30;;;;;;;8.46;72.63;99609.13;5129905;28;20735;-84
2022/11/21 11:53:13;;;;;;;0.30;0.30;;;;;;;8.55;74.81;99599.28;5142310;28;20035;-85
2022/11/21 11:56:07;;;;;;;2.85;2.05;;;;;;;8.57;72.37;99595.69;5150754;28;20439;-85
2022/11/21 11:58:47;;;;;;;1.05;1.05;;;;;;;8.71;72.20;99602.16;5163106;28;20813;-84
2022/11/21 12:01:23;;;;;;;0.30;0.30;;;;;;;8.71;73.50;99597.78;5147472;28;20038;-84
2022/11/21 12:04:15;;;;;;;0.30;0.30;;;;;;;8.76;73.07;99590.63;5182440;28;20045;-86
2022/11/21 12:07:15;;;;;;;0.55;0.55;;;;;;;8.67;71.91;99590.97;5140745;28;20045;-84
2022/11/21 12:10:03;;;;;;;0.25;0.25;;;;;;;8.75;72.06;99578.44;5136253;28;20483;-84
2022/11/21 12:12:53;;;;;;;0.30;0.30;;;;;;;8.86;72.06;99574.56;5162781;28;20499;-85
2022/11/21 12:15:47;;;;;;;0.30;0.30;;;;;;;8.86;72.96;99570.19;5166615;28;20108;-85
2022/11/21 12:18:21;;;;;;;;;;;;;;;8.91;71.38;99556.94;5175099;28;20042;-85
2022/11/21 12:20:54;;;;;;;0.57;0.43;;;;;;;8.90;73.44;99545.63;5133173;28;19921;-86
2022/11/21 12:23:40;;;;;;;4.45;1.33;;;;;;;8.91;72.35;99546.47;5143965;28;20052;-85
2022/11/21 12:26:33;;;;;;;1.15;1.08;;;;;;;8.95;70.41;99548.06;5181124;28;20117;-85
2022/11/21 12:29:51;;;;;;;0.20;0.20;;;;;;;8.94;69.75;99530.66;5140969;28;20038;-84
2022/11/21 12:32:49;;;;;;;0.30;0.30;;;;;;;8.96;68.61;99536.69;5077890;29;20401;-85
2022/11/21 12:35:31;;;;;;;0.65;0.65;;;;;;;8.93;69.39;99534.19;5165045;28;20133;-82
2022/11/21 12:38:17;;;;;;;0.20;0.20;;;;;;;8.96;71.14;99534.91;5170390;28;20038;-83
2022/11/21 12:44:09;;;;;;;1.02;0.50;;;;;;;8.94;70.14;99530.66;5143796;28;20030;-83
2022/11/21 12:46:46;;;;;;;0.40;0.40;;;;;;;8.92;69.32;99520.28;5140529;28;20134;-84